sensor_id;sensor_type;location;lat;lon;timestamp;P1;durP1;ratioP1;P2;durP2;ratioP2
54937;SDS011;52756;52.826;6.214;2023-05-10T00:02:06;6.65;;;6.05;;
54937;SDS011;52756;52.826;6.214;2023-05-10T00:04:32;7.20;;;6.50;;
54937;SDS011;52756;52.826;6.214;2023-05-10T00:06:58;6.90;;;6.20;;
54937;SDS011;52756;52.826;6.214;2023-05-10T00:09:23;8.05;;;6.50;;
54937;SDS011;52756;52.826;6.214;2023-05-10T00:11:49;7.28;;;6.57;;
54937;SDS011;52756;52.826;6.214;2023-05-10T00:14:15;7.60;;;6.85;;
54937;SDS011;52756;52.826;6.214;2023-05-10T00:16:41;7.35;;;6.65;;
54937;SDS011;52756;52.826;6.214;2023-05-10T00:19:07;8.52;;;7.63;;
54937;SDS011;52756;52.826;6.214;2023-05-10T00:21:32;7.25;;;6.55;;
54937;SDS011;52756;52.826;6.214;2023-05-10T00:23:58;8.02;;;7.22;;
54937;SDS011;52756;52.826;6.214;2023-05-10T00:26:25;6.20;;;5.60;;
54937;SDS011;52756;52.826;6.214;2023-05-10T00:28:50;7.03;;;6.18;;
54937;SDS011;52756;52.826;6.214;2023-05-10T00:31:16;7.50;;;6.57;;
54937;SDS011;52756;52.826;6.214;2023-05-10T00:33:42;7.43;;;6.72;;
54937;SDS011;52756;52.826;6.214;2023-05-10T00:36:08;6.68;;;5.93;;
54937;SDS011;52756;52.826;6.214;2023-05-10T00:38:33;7.28;;;6.53;;
54937;SDS011;52756;52.826;6.214;2023-05-10T00:40:59;7.85;;;7.07;;
54937;SDS011;52756;52.826;6.214;2023-05-10T00:43:25;7.95;;;6.68;;
54937;SDS011;52756;52.826;6.214;2023-05-10T00:45:50;7.38;;;6.57;;
54937;SDS011;52756;52.826;6.214;2023-05-10T00:48:17;7.20;;;6.03;;
54937;SDS011;52756;52.826;6.214;2023-05-10T00:50:43;6.43;;;5.82;;
54937;SDS011;52756;52.826;6.214;2023-05-10T00:53:09;7.55;;;5.72;;
54937;SDS011;52756;52.826;6.214;2023-05-10T00:55:35;6.30;;;5.63;;
54937;SDS011;52756;52.826;6.214;2023-05-10T00:58:02;6.95;;;6.25;;
54937;SDS011;52756;52.826;6.214;2023-05-10T01:00:28;6.30;;;5.15;;
54937;SDS011;52756;52.826;6.214;2023-05-10T01:02:54;7.07;;;5.80;;
54937;SDS011;52756;52.826;6.214;2023-05-10T01:05:20;5.47;;;4.88;;
54937;SDS011;52756;52.826;6.214;2023-05-10T01:07:46;6.40;;;5.80;;
54937;SDS011;52756;52.826;6.214;2023-05-10T01:10:12;6.32;;;5.20;;
54937;SDS011;52756;52.826;6.214;2023-05-10T01:12:38;6.32;;;5.57;;
54937;SDS011;52756;52.826;6.214;2023-05-10T01:15:09;5.32;;;4.80;;
54937;SDS011;52756;52.826;6.214;2023-05-10T01:17:37;6.85;;;6.15;;
54937;SDS011;52756;52.826;6.214;2023-05-10T01:20:04;5.72;;;4.93;;
54937;SDS011;52756;52.826;6.214;2023-05-10T01:28:26;6.35;;;5.75;;
54937;SDS011;52756;52.826;6.214;2023-05-10T01:34:21;6.60;;;5.28;;
54937;SDS011;52756;52.826;6.214;2023-05-10T01:36:58;5.65;;;4.88;;
54937;SDS011;52756;52.826;6.214;2023-05-10T01:42:21;6.15;;;5.00;;
54937;SDS011;52756;52.826;6.214;2023-05-10T01:50:10;4.45;;;3.88;;
54937;SDS011;52756;52.826;6.214;2023-05-10T01:52:42;5.72;;;4.93;;
54937;SDS011;52756;52.826;6.214;2023-05-10T01:55:11;4.80;;;4.07;;
54937;SDS011;52756;52.826;6.214;2023-05-10T01:57:42;4.60;;;4.15;;
54937;SDS011;52756;52.826;6.214;2023-05-10T02:00:11;5.88;;;4.53;;
54937;SDS011;52756;52.826;6.214;2023-05-10T02:02:39;4.75;;;4.05;;
54937;SDS011;52756;52.826;6.214;2023-05-10T02:05:07;5.15;;;4.45;;
54937;SDS011;52756;52.826;6.214;2023-05-10T02:07:35;4.82;;;4.20;;
54937;SDS011;52756;52.826;6.214;2023-05-10T02:10:05;5.43;;;4.18;;
54937;SDS011;52756;52.826;6.214;2023-05-10T02:12:36;4.53;;;4.03;;
54937;SDS011;52756;52.826;6.214;2023-05-10T02:17:33;5.05;;;3.75;;
54937;SDS011;52756;52.826;6.214;2023-05-10T02:20:02;4.75;;;3.85;;
54937;SDS011;52756;52.826;6.214;2023-05-10T02:22:31;5.05;;;4.30;;
54937;SDS011;52756;52.826;6.214;2023-05-10T02:24:58;6.22;;;4.85;;
54937;SDS011;52756;52.826;6.214;2023-05-10T02:27:25;4.70;;;4.20;;
54937;SDS011;52756;52.826;6.214;2023-05-10T02:29:52;5.25;;;4.30;;
54937;SDS011;52756;52.826;6.214;2023-05-10T02:32:20;4.43;;;4.03;;
54937;SDS011;52756;52.826;6.214;2023-05-10T02:34:47;4.68;;;4.03;;
54937;SDS011;52756;52.826;6.214;2023-05-10T02:37:17;4.80;;;4.30;;
54937;SDS011;52756;52.826;6.214;2023-05-10T02:39:49;4.50;;;3.90;;
54937;SDS011;52756;52.826;6.214;2023-05-10T02:42:18;4.40;;;3.97;;
54937;SDS011;52756;52.826;6.214;2023-05-10T02:44:48;4.30;;;3.90;;
54937;SDS011;52756;52.826;6.214;2023-05-10T02:47:18;5.78;;;4.47;;
54937;SDS011;52756;52.826;6.214;2023-05-10T02:49:44;4.70;;;3.90;;
54937;SDS011;52756;52.826;6.214;2023-05-10T02:52:10;5.05;;;4.55;;
54937;SDS011;52756;52.826;6.214;2023-05-10T02:54:41;4.35;;;3.95;;
54937;SDS011;52756;52.826;6.214;2023-05-10T02:57:11;5.00;;;4.50;;
54937;SDS011;52756;52.826;6.214;2023-05-10T02:59:41;5.45;;;4.57;;
54937;SDS011;52756;52.826;6.214;2023-05-10T03:02:08;5.57;;;5.07;;
54937;SDS011;52756;52.826;6.214;2023-05-10T03:04:34;6.07;;;5.47;;
54937;SDS011;52756;52.826;6.214;2023-05-10T03:07:00;4.97;;;4.18;;
54937;SDS011;52756;52.826;6.214;2023-05-10T03:09:26;5.78;;;5.25;;
54937;SDS011;52756;52.826;6.214;2023-05-10T03:11:56;5.57;;;4.57;;
54937;SDS011;52756;52.826;6.214;2023-05-10T03:17:23;5.28;;;4.78;;
54937;SDS011;52756;52.826;6.214;2023-05-10T03:19:56;5.63;;;5.13;;
54937;SDS011;52756;52.826;6.214;2023-05-10T03:22:24;5.65;;;5.07;;
54937;SDS011;52756;52.826;6.214;2023-05-10T03:24:56;5.13;;;4.20;;
54937;SDS011;52756;52.826;6.214;2023-05-10T03:27:23;5.82;;;5.22;;
54937;SDS011;52756;52.826;6.214;2023-05-10T03:29:52;5.85;;;5.10;;
54937;SDS011;52756;52.826;6.214;2023-05-10T03:32:19;6.07;;;4.82;;
54937;SDS011;52756;52.826;6.214;2023-05-10T03:34:45;4.40;;;4.00;;
54937;SDS011;52756;52.826;6.214;2023-05-10T03:37:11;5.45;;;4.18;;
54937;SDS011;52756;52.826;6.214;2023-05-10T03:39:36;5.10;;;4.55;;
54937;SDS011;52756;52.826;6.214;2023-05-10T03:42:02;5.97;;;4.88;;
54937;SDS011;52756;52.826;6.214;2023-05-10T03:44:28;6.68;;;4.97;;
54937;SDS011;52756;52.826;6.214;2023-05-10T03:46:54;5.93;;;4.53;;
54937;SDS011;52756;52.826;6.214;2023-05-10T03:49:20;5.10;;;4.55;;
54937;SDS011;52756;52.826;6.214;2023-05-10T03:51:46;5.38;;;4.60;;
54937;SDS011;52756;52.826;6.214;2023-05-10T03:54:11;6.10;;;4.75;;
54937;SDS011;52756;52.826;6.214;2023-05-10T03:56:37;6.22;;;5.60;;
54937;SDS011;52756;52.826;6.214;2023-05-10T03:59:02;6.15;;;5.55;;
54937;SDS011;52756;52.826;6.214;2023-05-10T04:01:32;6.28;;;5.30;;
54937;SDS011;52756;52.826;6.214;2023-05-10T04:03:59;5.53;;;4.72;;
54937;SDS011;52756;52.826;6.214;2023-05-10T04:06:24;5.88;;;4.63;;
54937;SDS011;52756;52.826;6.214;2023-05-10T04:08:50;5.30;;;4.75;;
54937;SDS011;52756;52.826;6.214;2023-05-10T04:11:16;5.10;;;4.35;;
54937;SDS011;52756;52.826;6.214;2023-05-10T04:13:41;5.72;;;5.13;;
54937;SDS011;52756;52.826;6.214;2023-05-10T04:16:08;5.72;;;4.82;;
54937;SDS011;52756;52.826;6.214;2023-05-10T04:18:34;5.45;;;4.72;;
54937;SDS011;52756;52.826;6.214;2023-05-10T04:21:00;5.57;;;4.22;;
54937;SDS011;52756;52.826;6.214;2023-05-10T04:23:26;4.97;;;4.20;;
54937;SDS011;52756;52.826;6.214;2023-05-10T04:25:52;5.10;;;4.60;;
54937;SDS011;52756;52.826;6.214;2023-05-10T04:28:24;5.00;;;4.50;;
54937;SDS011;52756;52.826;6.214;2023-05-10T04:30:49;5.18;;;4.60;;
54937;SDS011;52756;52.826;6.214;2023-05-10T04:33:15;4.65;;;4.00;;
54937;SDS011;52756;52.826;6.214;2023-05-10T04:35:40;5.50;;;4.35;;
54937;SDS011;52756;52.826;6.214;2023-05-10T04:38:06;7.30;;;4.75;;
54937;SDS011;52756;52.826;6.214;2023-05-10T04:40:32;4.85;;;3.80;;
54937;SDS011;52756;52.826;6.214;2023-05-10T04:42:58;4.72;;;4.13;;
54937;SDS011;52756;52.826;6.214;2023-05-10T04:45:23;4.68;;;4.03;;
54937;SDS011;52756;52.826;6.214;2023-05-10T04:47:49;5.47;;;3.95;;
54937;SDS011;52756;52.826;6.214;2023-05-10T04:50:15;6.05;;;4.80;;
54937;SDS011;52756;52.826;6.214;2023-05-10T04:52:40;7.68;;;5.40;;
54937;SDS011;52756;52.826;6.214;2023-05-10T04:55:06;5.75;;;5.18;;
54937;SDS011;52756;52.826;6.214;2023-05-10T04:57:34;5.55;;;4.70;;
54937;SDS011;52756;52.826;6.214;2023-05-10T05:00:00;5.25;;;4.50;;
54937;SDS011;52756;52.826;6.214;2023-05-10T05:02:26;7.57;;;5.45;;
54937;SDS011;52756;52.826;6.214;2023-05-10T05:04:52;5.22;;;4.60;;
54937;SDS011;52756;52.826;6.214;2023-05-10T05:07:18;5.30;;;4.80;;
54937;SDS011;52756;52.826;6.214;2023-05-10T05:09:43;5.25;;;4.75;;
54937;SDS011;52756;52.826;6.214;2023-05-10T05:12:09;7.05;;;4.68;;
54937;SDS011;52756;52.826;6.214;2023-05-10T05:14:39;5.57;;;4.57;;
54937;SDS011;52756;52.826;6.214;2023-05-10T05:17:05;7.35;;;5.55;;
54937;SDS011;52756;52.826;6.214;2023-05-10T05:19:31;6.20;;;5.22;;
54937;SDS011;52756;52.826;6.214;2023-05-10T05:21:56;7.60;;;5.53;;
54937;SDS011;52756;52.826;6.214;2023-05-10T05:24:22;8.10;;;5.68;;
54937;SDS011;52756;52.826;6.214;2023-05-10T05:26:48;7.85;;;5.15;;
54937;SDS011;52756;52.826;6.214;2023-05-10T05:29:14;5.93;;;4.90;;
54937;SDS011;52756;52.826;6.214;2023-05-10T05:31:39;6.90;;;4.95;;
54937;SDS011;52756;52.826;6.214;2023-05-10T05:34:05;7.53;;;5.50;;
54937;SDS011;52756;52.826;6.214;2023-05-10T05:36:31;5.70;;;5.05;;
54937;SDS011;52756;52.826;6.214;2023-05-10T05:38:57;6.28;;;4.90;;
54937;SDS011;52756;52.826;6.214;2023-05-10T05:41:23;6.57;;;4.80;;
54937;SDS011;52756;52.826;6.214;2023-05-10T05:43:49;6.72;;;5.60;;
54937;SDS011;52756;52.826;6.214;2023-05-10T05:46:15;5.22;;;4.65;;
54937;SDS011;52756;52.826;6.214;2023-05-10T05:48:41;5.32;;;4.80;;
54937;SDS011;52756;52.826;6.214;2023-05-10T05:51:06;5.03;;;4.50;;
54937;SDS011;52756;52.826;6.214;2023-05-10T05:53:32;7.45;;;5.68;;
54937;SDS011;52756;52.826;6.214;2023-05-10T05:55:58;7.03;;;5.85;;
54937;SDS011;52756;52.826;6.214;2023-05-10T05:58:27;6.97;;;5.50;;
54937;SDS011;52756;52.826;6.214;2023-05-10T06:00:53;5.65;;;5.00;;
54937;SDS011;52756;52.826;6.214;2023-05-10T06:03:19;5.38;;;4.85;;
54937;SDS011;52756;52.826;6.214;2023-05-10T06:05:44;6.30;;;5.22;;
54937;SDS011;52756;52.826;6.214;2023-05-10T06:08:10;5.40;;;4.88;;
54937;SDS011;52756;52.826;6.214;2023-05-10T06:10:36;6.60;;;4.85;;
54937;SDS011;52756;52.826;6.214;2023-05-10T06:13:02;6.10;;;5.20;;
54937;SDS011;52756;52.826;6.214;2023-05-10T06:15:28;6.22;;;5.18;;
54937;SDS011;52756;52.826;6.214;2023-05-10T06:17:53;5.78;;;4.70;;
54937;SDS011;52756;52.826;6.214;2023-05-10T06:20:19;5.68;;;4.90;;
54937;SDS011;52756;52.826;6.214;2023-05-10T06:22:45;5.65;;;5.05;;
54937;SDS011;52756;52.826;6.214;2023-05-10T06:25:10;5.85;;;4.88;;
54937;SDS011;52756;52.826;6.214;2023-05-10T06:27:36;8.02;;;6.05;;
54937;SDS011;52756;52.826;6.214;2023-05-10T06:30:02;7.45;;;6.03;;
54937;SDS011;52756;52.826;6.214;2023-05-10T06:32:28;6.75;;;5.57;;
54937;SDS011;52756;52.826;6.214;2023-05-10T06:34:54;6.53;;;5.07;;
54937;SDS011;52756;52.826;6.214;2023-05-10T06:37:20;6.28;;;5.20;;
54937;SDS011;52756;52.826;6.214;2023-05-10T06:39:45;6.72;;;5.32;;
54937;SDS011;52756;52.826;6.214;2023-05-10T06:42:11;6.38;;;5.20;;
54937;SDS011;52756;52.826;6.214;2023-05-10T06:44:37;5.90;;;5.05;;
54937;SDS011;52756;52.826;6.214;2023-05-10T06:47:02;8.27;;;6.03;;
54937;SDS011;52756;52.826;6.214;2023-05-10T06:49:28;7.60;;;5.55;;
54937;SDS011;52756;52.826;6.214;2023-05-10T06:51:55;6.53;;;5.07;;
54937;SDS011;52756;52.826;6.214;2023-05-10T06:54:21;6.55;;;5.05;;
54937;SDS011;52756;52.826;6.214;2023-05-10T06:56:47;7.72;;;5.55;;
54937;SDS011;52756;52.826;6.214;2023-05-10T06:59:13;6.38;;;4.95;;
54937;SDS011;52756;52.826;6.214;2023-05-10T07:01:40;6.10;;;4.22;;
54937;SDS011;52756;52.826;6.214;2023-05-10T07:04:05;6.50;;;4.47;;
54937;SDS011;52756;52.826;6.214;2023-05-10T07:06:32;6.90;;;5.13;;
54937;SDS011;52756;52.826;6.214;2023-05-10T07:08:58;7.85;;;4.88;;
54937;SDS011;52756;52.826;6.214;2023-05-10T07:11:24;6.45;;;4.32;;
54937;SDS011;52756;52.826;6.214;2023-05-10T07:13:50;7.72;;;4.88;;
54937;SDS011;52756;52.826;6.214;2023-05-10T07:16:15;6.10;;;4.20;;
54937;SDS011;52756;52.826;6.214;2023-05-10T07:18:41;6.03;;;4.40;;
54937;SDS011;52756;52.826;6.214;2023-05-10T07:21:07;7.10;;;4.75;;
54937;SDS011;52756;52.826;6.214;2023-05-10T07:23:33;6.50;;;4.32;;
54937;SDS011;52756;52.826;6.214;2023-05-10T07:25:59;5.80;;;4.22;;
54937;SDS011;52756;52.826;6.214;2023-05-10T07:28:25;7.78;;;5.03;;
54937;SDS011;52756;52.826;6.214;2023-05-10T07:30:50;7.45;;;4.88;;
54937;SDS011;52756;52.826;6.214;2023-05-10T07:33:16;8.07;;;5.15;;
54937;SDS011;52756;52.826;6.214;2023-05-10T07:35:42;6.22;;;4.47;;
54937;SDS011;52756;52.826;6.214;2023-05-10T07:38:08;6.45;;;4.82;;
54937;SDS011;52756;52.826;6.214;2023-05-10T07:40:35;5.70;;;4.00;;
54937;SDS011;52756;52.826;6.214;2023-05-10T07:43:01;6.88;;;4.55;;
54937;SDS011;52756;52.826;6.214;2023-05-10T07:45:27;6.32;;;4.32;;
54937;SDS011;52756;52.826;6.214;2023-05-10T07:47:53;7.45;;;5.80;;
54937;SDS011;52756;52.826;6.214;2023-05-10T07:50:19;7.70;;;5.50;;
54937;SDS011;52756;52.826;6.214;2023-05-10T07:52:46;8.05;;;5.13;;
54937;SDS011;52756;52.826;6.214;2023-05-10T07:55:13;8.18;;;5.28;;
54937;SDS011;52756;52.826;6.214;2023-05-10T07:57:38;8.18;;;6.30;;
54937;SDS011;52756;52.826;6.214;2023-05-10T08:00:05;8.05;;;6.22;;
54937;SDS011;52756;52.826;6.214;2023-05-10T08:02:32;6.40;;;4.80;;
54937;SDS011;52756;52.826;6.214;2023-05-10T08:05:00;7.18;;;5.47;;
54937;SDS011;52756;52.826;6.214;2023-05-10T08:07:25;5.68;;;4.70;;
54937;SDS011;52756;52.826;6.214;2023-05-10T08:09:51;6.28;;;5.13;;
54937;SDS011;52756;52.826;6.214;2023-05-10T08:12:17;7.85;;;6.20;;
54937;SDS011;52756;52.826;6.214;2023-05-10T08:14:42;6.63;;;5.45;;
54937;SDS011;52756;52.826;6.214;2023-05-10T08:17:08;7.97;;;6.22;;
54937;SDS011;52756;52.826;6.214;2023-05-10T08:19:34;7.30;;;5.97;;
54937;SDS011;52756;52.826;6.214;2023-05-10T08:22:00;8.32;;;7.32;;
54937;SDS011;52756;52.826;6.214;2023-05-10T08:24:25;10.13;;;7.95;;
54937;SDS011;52756;52.826;6.214;2023-05-10T08:26:51;12.07;;;7.95;;
54937;SDS011;52756;52.826;6.214;2023-05-10T08:29:17;10.63;;;8.70;;
54937;SDS011;52756;52.826;6.214;2023-05-10T08:31:42;9.13;;;6.95;;
54937;SDS011;52756;52.826;6.214;2023-05-10T08:34:08;9.65;;;8.65;;
54937;SDS011;52756;52.826;6.214;2023-05-10T08:36:34;11.23;;;8.90;;
54937;SDS011;52756;52.826;6.214;2023-05-10T08:38:59;10.13;;;8.93;;
54937;SDS011;52756;52.826;6.214;2023-05-10T08:41:25;10.93;;;9.18;;
54937;SDS011;52756;52.826;6.214;2023-05-10T08:43:52;13.55;;;9.10;;
54937;SDS011;52756;52.826;6.214;2023-05-10T08:46:19;12.90;;;9.95;;
54937;SDS011;52756;52.826;6.214;2023-05-10T08:48:47;10.57;;;9.10;;
54937;SDS011;52756;52.826;6.214;2023-05-10T08:51:14;11.48;;;8.75;;
54937;SDS011;52756;52.826;6.214;2023-05-10T08:53:44;11.52;;;8.75;;
54937;SDS011;52756;52.826;6.214;2023-05-10T08:56:10;11.98;;;8.77;;
54937;SDS011;52756;52.826;6.214;2023-05-10T08:58:37;9.63;;;7.72;;
54937;SDS011;52756;52.826;6.214;2023-05-10T09:01:04;10.30;;;7.93;;
54937;SDS011;52756;52.826;6.214;2023-05-10T09:03:31;9.20;;;7.63;;
54937;SDS011;52756;52.826;6.214;2023-05-10T09:05:57;7.82;;;6.95;;
54937;SDS011;52756;52.826;6.214;2023-05-10T09:08:24;8.77;;;7.20;;
54937;SDS011;52756;52.826;6.214;2023-05-10T09:10:56;7.70;;;6.68;;
54937;SDS011;52756;52.826;6.214;2023-05-10T09:13:22;7.88;;;6.55;;
54937;SDS011;52756;52.826;6.214;2023-05-10T09:15:49;7.45;;;6.28;;
54937;SDS011;52756;52.826;6.214;2023-05-10T09:18:16;7.50;;;5.93;;
54937;SDS011;52756;52.826;6.214;2023-05-10T09:20:42;6.38;;;5.72;;
54937;SDS011;52756;52.826;6.214;2023-05-10T09:23:07;7.30;;;5.38;;
54937;SDS011;52756;52.826;6.214;2023-05-10T09:25:33;6.25;;;5.18;;
54937;SDS011;52756;52.826;6.214;2023-05-10T09:27:59;5.65;;;4.82;;
54937;SDS011;52756;52.826;6.214;2023-05-10T09:30:26;5.60;;;4.80;;
54937;SDS011;52756;52.826;6.214;2023-05-10T09:32:56;4.95;;;4.05;;
54937;SDS011;52756;52.826;6.214;2023-05-10T09:35:23;4.53;;;3.85;;
54937;SDS011;52756;52.826;6.214;2023-05-10T09:37:51;5.10;;;3.97;;
54937;SDS011;52756;52.826;6.214;2023-05-10T09:40:22;5.28;;;3.63;;
54937;SDS011;52756;52.826;6.214;2023-05-10T09:45:25;6.78;;;4.32;;
54937;SDS011;52756;52.826;6.214;2023-05-10T09:47:53;6.78;;;4.80;;
54937;SDS011;52756;52.826;6.214;2023-05-10T09:50:19;6.97;;;4.93;;
54937;SDS011;52756;52.826;6.214;2023-05-10T09:52:50;7.85;;;4.82;;
54937;SDS011;52756;52.826;6.214;2023-05-10T09:55:19;5.43;;;4.72;;
54937;SDS011;52756;52.826;6.214;2023-05-10T09:57:47;6.95;;;4.97;;
54937;SDS011;52756;52.826;6.214;2023-05-10T10:00:17;5.60;;;4.70;;
54937;SDS011;52756;52.826;6.214;2023-05-10T10:02:47;6.95;;;5.13;;
54937;SDS011;52756;52.826;6.214;2023-05-10T10:05:19;7.03;;;5.60;;
54937;SDS011;52756;52.826;6.214;2023-05-10T10:07:45;6.28;;;4.90;;
54937;SDS011;52756;52.826;6.214;2023-05-10T10:10:11;7.03;;;5.93;;
54937;SDS011;52756;52.826;6.214;2023-05-10T10:12:38;8.63;;;5.68;;
54937;SDS011;52756;52.826;6.214;2023-05-10T10:15:05;8.40;;;6.38;;
54937;SDS011;52756;52.826;6.214;2023-05-10T10:17:32;7.70;;;5.80;;
54937;SDS011;52756;52.826;6.214;2023-05-10T10:20:02;8.25;;;5.97;;
54937;SDS011;52756;52.826;6.214;2023-05-10T10:22:28;6.95;;;5.88;;
54937;SDS011;52756;52.826;6.214;2023-05-10T10:24:54;8.32;;;6.28;;
54937;SDS011;52756;52.826;6.214;2023-05-10T10:27:24;9.27;;;5.75;;
54937;SDS011;52756;52.826;6.214;2023-05-10T10:32:27;7.28;;;5.65;;
54937;SDS011;52756;52.826;6.214;2023-05-10T10:34:58;7.35;;;5.90;;
54937;SDS011;52756;52.826;6.214;2023-05-10T10:37:40;7.75;;;6.68;;
54937;SDS011;52756;52.826;6.214;2023-05-10T10:40:29;8.55;;;7.43;;
54937;SDS011;52756;52.826;6.214;2023-05-10T10:42:57;7.05;;;5.97;;
54937;SDS011;52756;52.826;6.214;2023-05-10T10:45:43;7.10;;;6.13;;
54937;SDS011;52756;52.826;6.214;2023-05-10T10:48:22;7.03;;;6.07;;
54937;SDS011;52756;52.826;6.214;2023-05-10T10:50:55;7.68;;;6.32;;
54937;SDS011;52756;52.826;6.214;2023-05-10T10:53:25;6.53;;;5.82;;
54937;SDS011;52756;52.826;6.214;2023-05-10T10:55:53;8.05;;;6.43;;
54937;SDS011;52756;52.826;6.214;2023-05-10T10:58:31;7.03;;;5.85;;
54937;SDS011;52756;52.826;6.214;2023-05-10T11:01:09;7.28;;;5.63;;
54937;SDS011;52756;52.826;6.214;2023-05-10T11:03:40;7.88;;;5.97;;
54937;SDS011;52756;52.826;6.214;2023-05-10T11:06:28;7.10;;;6.40;;
54937;SDS011;52756;52.826;6.214;2023-05-10T11:08:57;8.32;;;6.93;;
54937;SDS011;52756;52.826;6.214;2023-05-10T11:11:24;8.85;;;7.72;;
54937;SDS011;52756;52.826;6.214;2023-05-10T11:13:50;14.23;;;10.02;;
54937;SDS011;52756;52.826;6.214;2023-05-10T11:16:23;9.70;;;8.50;;
54937;SDS011;52756;52.826;6.214;2023-05-10T11:21:29;14.45;;;11.55;;
54937;SDS011;52756;52.826;6.214;2023-05-10T11:23:56;13.13;;;10.80;;
54937;SDS011;52756;52.826;6.214;2023-05-10T11:26:24;13.07;;;10.50;;
54937;SDS011;52756;52.826;6.214;2023-05-10T11:28:52;14.75;;;12.00;;
54937;SDS011;52756;52.826;6.214;2023-05-10T11:31:22;13.65;;;11.57;;
54937;SDS011;52756;52.826;6.214;2023-05-10T11:33:49;14.23;;;10.80;;
54937;SDS011;52756;52.826;6.214;2023-05-10T11:38:46;14.75;;;12.05;;
54937;SDS011;52756;52.826;6.214;2023-05-10T11:41:13;15.27;;;11.10;;
54937;SDS011;52756;52.826;6.214;2023-05-10T11:43:40;12.20;;;9.95;;
54937;SDS011;52756;52.826;6.214;2023-05-10T11:46:10;11.20;;;9.45;;
54937;SDS011;52756;52.826;6.214;2023-05-10T11:48:40;10.63;;;9.07;;
54937;SDS011;52756;52.826;6.214;2023-05-10T11:51:07;12.35;;;9.55;;
54937;SDS011;52756;52.826;6.214;2023-05-10T11:53:33;11.35;;;9.48;;
54937;SDS011;52756;52.826;6.214;2023-05-10T11:56:02;10.48;;;8.98;;
54937;SDS011;52756;52.826;6.214;2023-05-10T11:58:30;11.57;;;9.13;;
54937;SDS011;52756;52.826;6.214;2023-05-10T12:00:56;9.80;;;8.00;;
54937;SDS011;52756;52.826;6.214;2023-05-10T12:03:23;11.10;;;8.93;;
54937;SDS011;52756;52.826;6.214;2023-05-10T12:05:49;12.18;;;9.30;;
54937;SDS011;52756;52.826;6.214;2023-05-10T12:08:15;11.98;;;9.77;;
54937;SDS011;52756;52.826;6.214;2023-05-10T12:10:46;10.40;;;9.30;;
54937;SDS011;52756;52.826;6.214;2023-05-10T12:13:12;11.65;;;10.40;;
54937;SDS011;52756;52.826;6.214;2023-05-10T12:15:42;12.05;;;9.57;;
54937;SDS011;52756;52.826;6.214;2023-05-10T12:18:14;11.77;;;10.27;;
54937;SDS011;52756;52.826;6.214;2023-05-10T12:20:47;11.48;;;9.43;;
54937;SDS011;52756;52.826;6.214;2023-05-10T12:23:13;12.75;;;10.35;;
54937;SDS011;52756;52.826;6.214;2023-05-10T12:25:39;12.40;;;9.73;;
54937;SDS011;52756;52.826;6.214;2023-05-10T12:28:06;10.95;;;9.32;;
54937;SDS011;52756;52.826;6.214;2023-05-10T12:30:33;11.88;;;10.40;;
54937;SDS011;52756;52.826;6.214;2023-05-10T12:33:07;12.15;;;9.57;;
54937;SDS011;52756;52.826;6.214;2023-05-10T12:40:57;11.38;;;8.75;;
54937;SDS011;52756;52.826;6.214;2023-05-10T12:43:27;11.95;;;10.50;;
54937;SDS011;52756;52.826;6.214;2023-05-10T12:45:53;10.55;;;9.30;;
54937;SDS011;52756;52.826;6.214;2023-05-10T12:48:19;11.75;;;9.65;;
54937;SDS011;52756;52.826;6.214;2023-05-10T12:50:45;11.15;;;9.25;;
54937;SDS011;52756;52.826;6.214;2023-05-10T12:53:12;12.80;;;9.75;;
54937;SDS011;52756;52.826;6.214;2023-05-10T12:55:40;12.82;;;9.48;;
54937;SDS011;52756;52.826;6.214;2023-05-10T12:58:09;11.18;;;9.85;;
54937;SDS011;52756;52.826;6.214;2023-05-10T13:00:35;11.20;;;8.90;;
54937;SDS011;52756;52.826;6.214;2023-05-10T13:03:03;11.25;;;9.38;;
54937;SDS011;52756;52.826;6.214;2023-05-10T13:05:30;9.95;;;8.20;;
54937;SDS011;52756;52.826;6.214;2023-05-10T13:07:57;10.93;;;8.70;;
54937;SDS011;52756;52.826;6.214;2023-05-10T13:10:22;10.57;;;8.55;;
54937;SDS011;52756;52.826;6.214;2023-05-10T13:12:49;9.45;;;8.10;;
54937;SDS011;52756;52.826;6.214;2023-05-10T13:15:14;11.00;;;9.00;;
54937;SDS011;52756;52.826;6.214;2023-05-10T13:17:40;11.43;;;8.77;;
54937;SDS011;52756;52.826;6.214;2023-05-10T13:20:07;12.02;;;9.48;;
54937;SDS011;52756;52.826;6.214;2023-05-10T13:22:34;10.60;;;8.05;;
54937;SDS011;52756;52.826;6.214;2023-05-10T13:25:00;12.02;;;8.45;;
54937;SDS011;52756;52.826;6.214;2023-05-10T13:27:27;12.88;;;9.18;;
54937;SDS011;52756;52.826;6.214;2023-05-10T13:29:52;10.98;;;8.88;;
54937;SDS011;52756;52.826;6.214;2023-05-10T13:32:18;11.07;;;9.00;;
54937;SDS011;52756;52.826;6.214;2023-05-10T13:34:44;12.13;;;9.30;;
54937;SDS011;52756;52.826;6.214;2023-05-10T13:37:10;11.02;;;9.52;;
54937;SDS011;52756;52.826;6.214;2023-05-10T13:39:35;12.60;;;10.00;;
54937;SDS011;52756;52.826;6.214;2023-05-10T13:42:02;12.75;;;9.63;;
54937;SDS011;52756;52.826;6.214;2023-05-10T13:44:28;10.80;;;9.18;;
54937;SDS011;52756;52.826;6.214;2023-05-10T13:46:55;13.73;;;10.27;;
54937;SDS011;52756;52.826;6.214;2023-05-10T13:49:21;11.43;;;9.55;;
54937;SDS011;52756;52.826;6.214;2023-05-10T13:51:47;12.05;;;10.02;;
54937;SDS011;52756;52.826;6.214;2023-05-10T13:54:13;12.27;;;10.52;;
54937;SDS011;52756;52.826;6.214;2023-05-10T13:56:39;11.65;;;9.45;;
54937;SDS011;52756;52.826;6.214;2023-05-10T13:59:06;10.55;;;8.88;;
54937;SDS011;52756;52.826;6.214;2023-05-10T14:01:32;10.43;;;8.60;;
54937;SDS011;52756;52.826;6.214;2023-05-10T14:03:59;9.35;;;8.35;;
54937;SDS011;52756;52.826;6.214;2023-05-10T14:06:24;11.43;;;9.35;;
54937;SDS011;52756;52.826;6.214;2023-05-10T14:08:52;10.43;;;8.20;;
54937;SDS011;52756;52.826;6.214;2023-05-10T14:11:18;8.32;;;7.10;;
54937;SDS011;52756;52.826;6.214;2023-05-10T14:13:44;8.82;;;7.45;;
54937;SDS011;52756;52.826;6.214;2023-05-10T14:16:10;7.72;;;6.28;;
54937;SDS011;52756;52.826;6.214;2023-05-10T14:18:36;8.38;;;6.35;;
54937;SDS011;52756;52.826;6.214;2023-05-10T14:21:03;5.93;;;4.93;;
54937;SDS011;52756;52.826;6.214;2023-05-10T14:23:28;8.43;;;5.38;;
54937;SDS011;52756;52.826;6.214;2023-05-10T14:25:55;6.03;;;4.97;;
54937;SDS011;52756;52.826;6.214;2023-05-10T14:28:21;5.97;;;4.50;;
54937;SDS011;52756;52.826;6.214;2023-05-10T14:30:48;6.22;;;4.30;;
54937;SDS011;52756;52.826;6.214;2023-05-10T14:33:14;6.25;;;4.80;;
54937;SDS011;52756;52.826;6.214;2023-05-10T14:35:41;5.72;;;4.13;;
54937;SDS011;52756;52.826;6.214;2023-05-10T14:38:07;5.72;;;4.18;;
54937;SDS011;52756;52.826;6.214;2023-05-10T14:40:32;4.40;;;3.42;;
54937;SDS011;52756;52.826;6.214;2023-05-10T14:42:58;4.78;;;3.20;;
54937;SDS011;52756;52.826;6.214;2023-05-10T14:45:24;4.03;;;2.80;;
54937;SDS011;52756;52.826;6.214;2023-05-10T14:47:50;4.38;;;3.03;;
54937;SDS011;52756;52.826;6.214;2023-05-10T14:50:15;4.63;;;3.15;;
54937;SDS011;52756;52.826;6.214;2023-05-10T14:52:43;5.10;;;3.72;;
54937;SDS011;52756;52.826;6.214;2023-05-10T14:55:09;3.50;;;2.70;;
54937;SDS011;52756;52.826;6.214;2023-05-10T14:57:35;4.07;;;3.05;;
54937;SDS011;52756;52.826;6.214;2023-05-10T15:00:01;3.72;;;3.10;;
54937;SDS011;52756;52.826;6.214;2023-05-10T15:02:27;4.18;;;3.08;;
54937;SDS011;52756;52.826;6.214;2023-05-10T15:04:53;6.70;;;3.30;;
54937;SDS011;52756;52.826;6.214;2023-05-10T15:07:19;4.80;;;3.28;;
54937;SDS011;52756;52.826;6.214;2023-05-10T15:09:44;3.45;;;1.98;;
54937;SDS011;52756;52.826;6.214;2023-05-10T15:12:10;3.65;;;2.83;;
54937;SDS011;52756;52.826;6.214;2023-05-10T15:14:36;4.35;;;2.17;;
54937;SDS011;52756;52.826;6.214;2023-05-10T15:17:02;4.22;;;2.75;;
54937;SDS011;52756;52.826;6.214;2023-05-10T15:19:28;2.85;;;1.98;;
54937;SDS011;52756;52.826;6.214;2023-05-10T15:21:54;2.60;;;1.90;;